Terminal Aerodrome Forecast
Issued by NWS

Home | Current Version | Previous Version | Text Only | Print | Product List | Glossary On
Versions: 1 2 3 4 5 6 7 8 9 10 11 12 13 14 15 16 17
000
FTUS46 KMTR 070734 AAA
TAFSTS
TAF AMD
KSTS 070734Z 0708/0806 33004KT P6SM FEW250
      TEMPO 0710/0714 1/2SM FZFG VV001
     FM071730 01004KT P6SM BKN120 OVC200
     FM072200 04005KT P6SM VCSH BKN060 OVC080
     FM080000 04004KT P6SM -RA OVC030=

USA.gov is the U.S. government's official web portal to all federal, state and local government web resources and services.